sensor_id;sensor_type;location;lat;lon;timestamp;P1;durP1;ratioP1;P2;durP2;ratioP2
10731;SDS011;5417;42.686;23.244;2022-09-30T00:00:35;17.13;;;13.03;;
10731;SDS011;5417;42.686;23.244;2022-09-30T00:03:02;14.07;;;12.63;;
10731;SDS011;5417;42.686;23.244;2022-09-30T00:05:29;16.47;;;13.73;;
10731;SDS011;5417;42.686;23.244;2022-09-30T00:07:56;16.90;;;12.67;;
10731;SDS011;5417;42.686;23.244;2022-09-30T00:10:23;16.53;;;13.43;;
10731;SDS011;5417;42.686;23.244;2022-09-30T00:12:50;15.23;;;13.47;;
10731;SDS011;5417;42.686;23.244;2022-09-30T00:15:18;18.27;;;13.70;;
10731;SDS011;5417;42.686;23.244;2022-09-30T00:17:46;17.17;;;13.67;;
10731;SDS011;5417;42.686;23.244;2022-09-30T00:20:13;14.17;;;12.67;;
10731;SDS011;5417;42.686;23.244;2022-09-30T00:22:41;16.17;;;13.17;;
10731;SDS011;5417;42.686;23.244;2022-09-30T00:25:09;15.13;;;12.77;;
10731;SDS011;5417;42.686;23.244;2022-09-30T00:27:37;15.33;;;12.60;;
10731;SDS011;5417;42.686;23.244;2022-09-30T00:30:04;13.60;;;12.13;;
10731;SDS011;5417;42.686;23.244;2022-09-30T00:32:31;13.70;;;12.03;;
10731;SDS011;5417;42.686;23.244;2022-09-30T00:35:00;14.80;;;12.17;;
10731;SDS011;5417;42.686;23.244;2022-09-30T00:37:27;13.20;;;11.80;;
10731;SDS011;5417;42.686;23.244;2022-09-30T00:39:54;13.90;;;12.43;;
10731;SDS011;5417;42.686;23.244;2022-09-30T00:45:01;14.43;;;12.73;;
10731;SDS011;5417;42.686;23.244;2022-09-30T00:47:45;14.57;;;13.13;;
10731;SDS011;5417;42.686;23.244;2022-09-30T00:50:20;11.57;;;10.47;;
10731;SDS011;5417;42.686;23.244;2022-09-30T00:52:51;11.67;;;10.47;;
10731;SDS011;5417;42.686;23.244;2022-09-30T00:55:25;11.53;;;10.50;;
10731;SDS011;5417;42.686;23.244;2022-09-30T00:57:57;12.40;;;10.67;;
10731;SDS011;5417;42.686;23.244;2022-09-30T01:00:27;9.83;;;9.00;;
10731;SDS011;5417;42.686;23.244;2022-09-30T01:02:53;11.97;;;10.63;;
10731;SDS011;5417;42.686;23.244;2022-09-30T01:05:23;11.27;;;10.13;;
10731;SDS011;5417;42.686;23.244;2022-09-30T01:07:51;10.63;;;9.53;;
10731;SDS011;5417;42.686;23.244;2022-09-30T01:10:20;10.33;;;9.03;;
10731;SDS011;5417;42.686;23.244;2022-09-30T01:12:47;6.50;;;5.87;;
10731;SDS011;5417;42.686;23.244;2022-09-30T01:15:14;5.93;;;5.37;;
10731;SDS011;5417;42.686;23.244;2022-09-30T01:17:44;6.90;;;5.50;;
10731;SDS011;5417;42.686;23.244;2022-09-30T01:20:42;6.40;;;5.63;;
10731;SDS011;5417;42.686;23.244;2022-09-30T01:23:37;6.33;;;5.93;;
10731;SDS011;5417;42.686;23.244;2022-09-30T01:26:42;6.13;;;5.53;;
10731;SDS011;5417;42.686;23.244;2022-09-30T01:29:27;6.03;;;5.53;;
10731;SDS011;5417;42.686;23.244;2022-09-30T01:32:18;6.67;;;6.07;;
10731;SDS011;5417;42.686;23.244;2022-09-30T01:34:56;7.27;;;6.67;;
10731;SDS011;5417;42.686;23.244;2022-09-30T01:37:33;6.40;;;5.90;;
10731;SDS011;5417;42.686;23.244;2022-09-30T01:40:10;6.23;;;5.73;;
10731;SDS011;5417;42.686;23.244;2022-09-30T01:42:49;6.97;;;6.43;;
10731;SDS011;5417;42.686;23.244;2022-09-30T01:45:24;6.47;;;5.90;;
10731;SDS011;5417;42.686;23.244;2022-09-30T01:47:59;6.73;;;5.97;;
10731;SDS011;5417;42.686;23.244;2022-09-30T01:50:34;6.60;;;6.00;;
10731;SDS011;5417;42.686;23.244;2022-09-30T01:53:09;7.50;;;6.80;;
10731;SDS011;5417;42.686;23.244;2022-09-30T01:55:44;7.30;;;6.60;;
10731;SDS011;5417;42.686;23.244;2022-09-30T01:58:18;6.20;;;5.73;;
10731;SDS011;5417;42.686;23.244;2022-09-30T02:00:51;8.23;;;5.90;;
10731;SDS011;5417;42.686;23.244;2022-09-30T02:03:25;8.27;;;7.40;;
10731;SDS011;5417;42.686;23.244;2022-09-30T02:05:57;10.33;;;8.20;;
10731;SDS011;5417;42.686;23.244;2022-09-30T02:08:28;6.87;;;6.30;;
10731;SDS011;5417;42.686;23.244;2022-09-30T02:11:01;9.17;;;7.67;;
10731;SDS011;5417;42.686;23.244;2022-09-30T02:13:34;9.63;;;8.60;;
10731;SDS011;5417;42.686;23.244;2022-09-30T02:16:06;10.30;;;8.80;;
10731;SDS011;5417;42.686;23.244;2022-09-30T02:18:40;10.47;;;7.47;;
10731;SDS011;5417;42.686;23.244;2022-09-30T02:21:10;13.43;;;9.53;;
10731;SDS011;5417;42.686;23.244;2022-09-30T02:23:43;11.50;;;9.40;;
10731;SDS011;5417;42.686;23.244;2022-09-30T02:26:14;11.53;;;8.47;;
10731;SDS011;5417;42.686;23.244;2022-09-30T02:28:45;11.10;;;8.93;;
10731;SDS011;5417;42.686;23.244;2022-09-30T02:31:16;9.67;;;8.80;;
10731;SDS011;5417;42.686;23.244;2022-09-30T02:33:49;9.57;;;8.63;;
10731;SDS011;5417;42.686;23.244;2022-09-30T02:36:20;9.13;;;8.23;;
10731;SDS011;5417;42.686;23.244;2022-09-30T02:38:55;33.80;;;28.43;;
10731;SDS011;5417;42.686;23.244;2022-09-30T02:41:27;9.87;;;8.87;;
10731;SDS011;5417;42.686;23.244;2022-09-30T02:43:58;9.67;;;8.87;;
10731;SDS011;5417;42.686;23.244;2022-09-30T02:46:30;9.00;;;7.97;;
10731;SDS011;5417;42.686;23.244;2022-09-30T02:49:10;10.00;;;8.93;;
10731;SDS011;5417;42.686;23.244;2022-09-30T02:51:44;9.83;;;8.83;;
10731;SDS011;5417;42.686;23.244;2022-09-30T02:54:22;10.73;;;9.53;;
10731;SDS011;5417;42.686;23.244;2022-09-30T02:56:57;12.37;;;10.07;;
10731;SDS011;5417;42.686;23.244;2022-09-30T02:59:31;12.20;;;10.50;;
10731;SDS011;5417;42.686;23.244;2022-09-30T03:01:58;10.17;;;8.60;;
10731;SDS011;5417;42.686;23.244;2022-09-30T03:04:27;11.30;;;9.63;;
10731;SDS011;5417;42.686;23.244;2022-09-30T03:06:58;11.87;;;10.17;;
10731;SDS011;5417;42.686;23.244;2022-09-30T03:09:26;11.53;;;9.93;;
10731;SDS011;5417;42.686;23.244;2022-09-30T03:11:54;11.97;;;9.13;;
10731;SDS011;5417;42.686;23.244;2022-09-30T03:14:32;10.40;;;8.83;;
10731;SDS011;5417;42.686;23.244;2022-09-30T03:17:18;10.57;;;8.83;;
10731;SDS011;5417;42.686;23.244;2022-09-30T03:20:06;9.53;;;8.67;;
10731;SDS011;5417;42.686;23.244;2022-09-30T03:22:46;11.37;;;9.50;;
10731;SDS011;5417;42.686;23.244;2022-09-30T03:25:24;13.03;;;9.30;;
10731;SDS011;5417;42.686;23.244;2022-09-30T03:28:03;10.53;;;8.70;;
10731;SDS011;5417;42.686;23.244;2022-09-30T03:30:39;10.97;;;9.60;;
10731;SDS011;5417;42.686;23.244;2022-09-30T03:33:16;12.63;;;8.50;;
10731;SDS011;5417;42.686;23.244;2022-09-30T03:35:53;10.70;;;9.60;;
10731;SDS011;5417;42.686;23.244;2022-09-30T03:38:31;9.23;;;8.37;;
10731;SDS011;5417;42.686;23.244;2022-09-30T03:41:07;12.00;;;10.43;;
10731;SDS011;5417;42.686;23.244;2022-09-30T03:43:41;10.60;;;9.43;;
10731;SDS011;5417;42.686;23.244;2022-09-30T03:46:12;9.73;;;8.73;;
10731;SDS011;5417;42.686;23.244;2022-09-30T03:48:45;13.00;;;11.70;;
10731;SDS011;5417;42.686;23.244;2022-09-30T03:51:17;12.00;;;10.90;;
10731;SDS011;5417;42.686;23.244;2022-09-30T03:53:44;19.47;;;14.23;;
10731;SDS011;5417;42.686;23.244;2022-09-30T03:56:12;15.13;;;12.87;;
10731;SDS011;5417;42.686;23.244;2022-09-30T03:58:39;18.60;;;12.20;;
10731;SDS011;5417;42.686;23.244;2022-09-30T04:01:09;15.03;;;12.57;;
10731;SDS011;5417;42.686;23.244;2022-09-30T04:03:45;17.93;;;13.30;;
10731;SDS011;5417;42.686;23.244;2022-09-30T04:06:12;23.90;;;14.03;;
10731;SDS011;5417;42.686;23.244;2022-09-30T04:08:41;26.57;;;14.57;;
10731;SDS011;5417;42.686;23.244;2022-09-30T04:11:08;18.33;;;14.97;;
10731;SDS011;5417;42.686;23.244;2022-09-30T04:13:36;24.70;;;14.83;;
10731;SDS011;5417;42.686;23.244;2022-09-30T04:16:03;27.27;;;15.93;;
10731;SDS011;5417;42.686;23.244;2022-09-30T04:18:31;19.07;;;14.87;;
10731;SDS011;5417;42.686;23.244;2022-09-30T04:20:57;32.90;;;14.27;;
10731;SDS011;5417;42.686;23.244;2022-09-30T04:23:24;33.53;;;17.67;;
10731;SDS011;5417;42.686;23.244;2022-09-30T04:25:53;31.40;;;15.27;;
10731;SDS011;5417;42.686;23.244;2022-09-30T04:28:20;23.53;;;15.63;;
10731;SDS011;5417;42.686;23.244;2022-09-30T04:30:48;32.00;;;14.53;;
10731;SDS011;5417;42.686;23.244;2022-09-30T04:33:15;38.07;;;14.93;;
10731;SDS011;5417;42.686;23.244;2022-09-30T04:35:42;24.50;;;14.13;;
10731;SDS011;5417;42.686;23.244;2022-09-30T04:38:09;23.73;;;13.93;;
10731;SDS011;5417;42.686;23.244;2022-09-30T04:40:36;24.70;;;17.93;;
10731;SDS011;5417;42.686;23.244;2022-09-30T04:43:05;35.07;;;18.60;;
10731;SDS011;5417;42.686;23.244;2022-09-30T04:45:32;21.27;;;14.80;;
10731;SDS011;5417;42.686;23.244;2022-09-30T04:48:01;30.03;;;15.47;;
10731;SDS011;5417;42.686;23.244;2022-09-30T04:50:28;25.00;;;15.20;;
10731;SDS011;5417;42.686;23.244;2022-09-30T04:52:56;51.83;;;15.57;;
10731;SDS011;5417;42.686;23.244;2022-09-30T04:55:23;21.50;;;12.87;;
10731;SDS011;5417;42.686;23.244;2022-09-30T04:57:50;18.37;;;13.03;;
10731;SDS011;5417;42.686;23.244;2022-09-30T05:00:18;22.93;;;14.80;;
10731;SDS011;5417;42.686;23.244;2022-09-30T05:02:45;55.53;;;14.63;;
10731;SDS011;5417;42.686;23.244;2022-09-30T05:05:12;42.27;;;14.20;;
10731;SDS011;5417;42.686;23.244;2022-09-30T05:07:39;19.03;;;13.53;;
10731;SDS011;5417;42.686;23.244;2022-09-30T05:10:10;20.47;;;14.63;;
10731;SDS011;5417;42.686;23.244;2022-09-30T05:12:37;20.50;;;13.97;;
10731;SDS011;5417;42.686;23.244;2022-09-30T05:15:05;53.50;;;14.77;;
10731;SDS011;5417;42.686;23.244;2022-09-30T05:17:34;20.17;;;14.57;;
10731;SDS011;5417;42.686;23.244;2022-09-30T05:20:02;44.73;;;14.30;;
10731;SDS011;5417;42.686;23.244;2022-09-30T05:22:31;20.90;;;13.57;;
10731;SDS011;5417;42.686;23.244;2022-09-30T05:24:58;35.10;;;13.57;;
10731;SDS011;5417;42.686;23.244;2022-09-30T05:27:26;17.73;;;13.53;;
10731;SDS011;5417;42.686;23.244;2022-09-30T05:29:53;22.63;;;14.73;;
10731;SDS011;5417;42.686;23.244;2022-09-30T05:32:20;21.63;;;14.53;;
10731;SDS011;5417;42.686;23.244;2022-09-30T05:34:48;25.00;;;14.43;;
10731;SDS011;5417;42.686;23.244;2022-09-30T05:37:15;27.47;;;14.27;;
10731;SDS011;5417;42.686;23.244;2022-09-30T05:39:42;21.53;;;14.67;;
10731;SDS011;5417;42.686;23.244;2022-09-30T05:42:09;20.33;;;14.37;;
10731;SDS011;5417;42.686;23.244;2022-09-30T05:44:35;24.07;;;15.13;;
10731;SDS011;5417;42.686;23.244;2022-09-30T05:47:02;21.37;;;16.47;;
10731;SDS011;5417;42.686;23.244;2022-09-30T05:49:29;33.20;;;15.80;;
10731;SDS011;5417;42.686;23.244;2022-09-30T05:52:00;39.30;;;16.40;;
10731;SDS011;5417;42.686;23.244;2022-09-30T05:54:27;31.53;;;17.10;;
10731;SDS011;5417;42.686;23.244;2022-09-30T05:56:54;37.17;;;18.13;;
10731;SDS011;5417;42.686;23.244;2022-09-30T05:59:21;35.43;;;27.47;;
10731;SDS011;5417;42.686;23.244;2022-09-30T06:01:47;24.57;;;18.50;;
10731;SDS011;5417;42.686;23.244;2022-09-30T06:04:14;36.67;;;17.60;;
10731;SDS011;5417;42.686;23.244;2022-09-30T06:06:42;23.73;;;18.20;;
10731;SDS011;5417;42.686;23.244;2022-09-30T06:09:10;24.13;;;18.00;;
10731;SDS011;5417;42.686;23.244;2022-09-30T06:11:37;23.17;;;17.33;;
10731;SDS011;5417;42.686;23.244;2022-09-30T06:14:04;28.70;;;19.33;;
10731;SDS011;5417;42.686;23.244;2022-09-30T06:16:32;25.00;;;18.87;;
10731;SDS011;5417;42.686;23.244;2022-09-30T06:18:59;22.27;;;18.70;;
10731;SDS011;5417;42.686;23.244;2022-09-30T06:21:26;41.10;;;20.07;;
10731;SDS011;5417;42.686;23.244;2022-09-30T06:23:53;27.00;;;20.47;;
10731;SDS011;5417;42.686;23.244;2022-09-30T06:26:21;28.90;;;22.40;;
10731;SDS011;5417;42.686;23.244;2022-09-30T06:28:48;33.37;;;23.77;;
10731;SDS011;5417;42.686;23.244;2022-09-30T06:31:15;31.37;;;22.37;;
10731;SDS011;5417;42.686;23.244;2022-09-30T06:33:42;38.70;;;23.43;;
10731;SDS011;5417;42.686;23.244;2022-09-30T06:36:10;35.60;;;25.23;;
10731;SDS011;5417;42.686;23.244;2022-09-30T06:38:36;40.00;;;26.77;;
10731;SDS011;5417;42.686;23.244;2022-09-30T06:41:04;43.37;;;27.73;;
10731;SDS011;5417;42.686;23.244;2022-09-30T06:43:33;36.70;;;26.17;;
10731;SDS011;5417;42.686;23.244;2022-09-30T06:45:59;40.13;;;27.57;;
10731;SDS011;5417;42.686;23.244;2022-09-30T06:48:26;38.63;;;26.47;;
10731;SDS011;5417;42.686;23.244;2022-09-30T06:50:56;35.90;;;25.03;;
10731;SDS011;5417;42.686;23.244;2022-09-30T06:53:23;38.10;;;26.27;;
10731;SDS011;5417;42.686;23.244;2022-09-30T06:55:53;34.63;;;25.50;;
10731;SDS011;5417;42.686;23.244;2022-09-30T06:58:21;37.27;;;26.27;;
10731;SDS011;5417;42.686;23.244;2022-09-30T07:00:57;38.27;;;25.43;;
10731;SDS011;5417;42.686;23.244;2022-09-30T07:03:26;39.87;;;27.67;;
10731;SDS011;5417;42.686;23.244;2022-09-30T07:05:55;42.70;;;29.43;;
10731;SDS011;5417;42.686;23.244;2022-09-30T07:08:22;41.73;;;29.17;;
10731;SDS011;5417;42.686;23.244;2022-09-30T07:10:53;39.80;;;29.87;;
10731;SDS011;5417;42.686;23.244;2022-09-30T07:13:20;41.60;;;30.10;;
10731;SDS011;5417;42.686;23.244;2022-09-30T07:15:47;42.47;;;29.40;;
10731;SDS011;5417;42.686;23.244;2022-09-30T07:18:15;42.30;;;30.43;;
10731;SDS011;5417;42.686;23.244;2022-09-30T07:20:46;45.97;;;29.77;;
10731;SDS011;5417;42.686;23.244;2022-09-30T07:23:14;41.40;;;28.80;;
10731;SDS011;5417;42.686;23.244;2022-09-30T07:25:47;39.67;;;27.27;;
10731;SDS011;5417;42.686;23.244;2022-09-30T07:28:15;40.83;;;29.80;;
10731;SDS011;5417;42.686;23.244;2022-09-30T07:30:42;39.97;;;28.27;;
10731;SDS011;5417;42.686;23.244;2022-09-30T07:33:09;51.03;;;32.37;;
10731;SDS011;5417;42.686;23.244;2022-09-30T07:35:42;50.83;;;34.27;;
10731;SDS011;5417;42.686;23.244;2022-09-30T07:38:16;52.80;;;35.20;;
10731;SDS011;5417;42.686;23.244;2022-09-30T07:40:50;49.30;;;33.30;;
10731;SDS011;5417;42.686;23.244;2022-09-30T07:43:19;46.07;;;31.07;;
10731;SDS011;5417;42.686;23.244;2022-09-30T07:45:46;41.47;;;28.37;;
10731;SDS011;5417;42.686;23.244;2022-09-30T07:48:31;39.07;;;28.43;;
10731;SDS011;5417;42.686;23.244;2022-09-30T07:51:14;35.37;;;28.20;;
10731;SDS011;5417;42.686;23.244;2022-09-30T07:53:43;42.33;;;28.83;;
10731;SDS011;5417;42.686;23.244;2022-09-30T07:56:11;39.17;;;29.57;;
10731;SDS011;5417;42.686;23.244;2022-09-30T07:58:39;40.13;;;28.43;;
10731;SDS011;5417;42.686;23.244;2022-09-30T08:01:06;37.13;;;27.67;;
10731;SDS011;5417;42.686;23.244;2022-09-30T08:03:33;36.00;;;28.97;;
10731;SDS011;5417;42.686;23.244;2022-09-30T08:06:03;38.80;;;28.70;;
10731;SDS011;5417;42.686;23.244;2022-09-30T08:08:33;39.90;;;28.70;;
10731;SDS011;5417;42.686;23.244;2022-09-30T08:11:00;36.47;;;26.43;;
10731;SDS011;5417;42.686;23.244;2022-09-30T08:13:27;29.57;;;25.13;;
10731;SDS011;5417;42.686;23.244;2022-09-30T08:15:54;23.67;;;21.17;;
10731;SDS011;5417;42.686;23.244;2022-09-30T08:18:21;30.77;;;23.37;;
10731;SDS011;5417;42.686;23.244;2022-09-30T08:20:48;30.70;;;24.50;;
10731;SDS011;5417;42.686;23.244;2022-09-30T08:23:15;36.73;;;25.37;;
10731;SDS011;5417;42.686;23.244;2022-09-30T08:25:44;41.57;;;29.37;;
10731;SDS011;5417;42.686;23.244;2022-09-30T08:28:12;44.80;;;31.20;;
10731;SDS011;5417;42.686;23.244;2022-09-30T08:30:39;34.77;;;26.93;;
10731;SDS011;5417;42.686;23.244;2022-09-30T08:33:06;36.57;;;27.40;;
10731;SDS011;5417;42.686;23.244;2022-09-30T08:35:33;34.67;;;26.97;;
10731;SDS011;5417;42.686;23.244;2022-09-30T08:38:01;37.70;;;27.10;;
10731;SDS011;5417;42.686;23.244;2022-09-30T08:40:29;36.40;;;27.03;;
10731;SDS011;5417;42.686;23.244;2022-09-30T08:43:06;53.40;;;25.43;;
10731;SDS011;5417;42.686;23.244;2022-09-30T08:45:43;33.43;;;24.50;;
10731;SDS011;5417;42.686;23.244;2022-09-30T08:48:28;31.53;;;24.93;;
10731;SDS011;5417;42.686;23.244;2022-09-30T08:51:07;28.83;;;22.67;;
10731;SDS011;5417;42.686;23.244;2022-09-30T08:53:44;29.73;;;21.97;;
10731;SDS011;5417;42.686;23.244;2022-09-30T08:56:16;26.63;;;20.43;;
10731;SDS011;5417;42.686;23.244;2022-09-30T08:58:49;24.13;;;19.50;;
10731;SDS011;5417;42.686;23.244;2022-09-30T09:01:23;27.53;;;19.23;;
10731;SDS011;5417;42.686;23.244;2022-09-30T09:03:56;24.77;;;19.27;;
10731;SDS011;5417;42.686;23.244;2022-09-30T09:06:26;20.47;;;18.33;;
10731;SDS011;5417;42.686;23.244;2022-09-30T09:09:05;17.60;;;15.83;;
10731;SDS011;5417;42.686;23.244;2022-09-30T09:11:53;18.43;;;15.93;;
10731;SDS011;5417;42.686;23.244;2022-09-30T09:14:36;15.63;;;13.77;;
10731;SDS011;5417;42.686;23.244;2022-09-30T09:17:12;20.13;;;15.50;;
10731;SDS011;5417;42.686;23.244;2022-09-30T09:19:54;19.97;;;16.27;;
10731;SDS011;5417;42.686;23.244;2022-09-30T09:22:29;19.63;;;15.40;;
10731;SDS011;5417;42.686;23.244;2022-09-30T09:24:58;16.03;;;13.60;;
10731;SDS011;5417;42.686;23.244;2022-09-30T09:27:29;14.60;;;12.53;;
10731;SDS011;5417;42.686;23.244;2022-09-30T09:30:06;17.13;;;13.73;;
10731;SDS011;5417;42.686;23.244;2022-09-30T09:32:42;16.07;;;14.13;;
10731;SDS011;5417;42.686;23.244;2022-09-30T09:35:23;15.47;;;12.00;;
10731;SDS011;5417;42.686;23.244;2022-09-30T09:37:58;12.90;;;11.77;;
10731;SDS011;5417;42.686;23.244;2022-09-30T09:40:52;13.60;;;12.10;;
10731;SDS011;5417;42.686;23.244;2022-09-30T09:43:33;14.90;;;9.80;;
10731;SDS011;5417;42.686;23.244;2022-09-30T09:46:13;13.67;;;10.80;;
10731;SDS011;5417;42.686;23.244;2022-09-30T09:48:46;16.03;;;11.43;;
10731;SDS011;5417;42.686;23.244;2022-09-30T09:51:17;5.13;;;4.73;;
10731;SDS011;5417;42.686;23.244;2022-09-30T09:53:50;4.17;;;3.77;;
10731;SDS011;5417;42.686;23.244;2022-09-30T09:56:25;5.97;;;3.10;;
10731;SDS011;5417;42.686;23.244;2022-09-30T10:01:48;3.50;;;3.20;;
10731;SDS011;5417;42.686;23.244;2022-09-30T10:04:17;3.20;;;3.00;;
10731;SDS011;5417;42.686;23.244;2022-09-30T10:06:50;3.70;;;2.67;;
10731;SDS011;5417;42.686;23.244;2022-09-30T10:09:31;3.37;;;3.07;;
10731;SDS011;5417;42.686;23.244;2022-09-30T10:14:57;6.03;;;3.30;;
10731;SDS011;5417;42.686;23.244;2022-09-30T10:17:41;3.60;;;3.30;;
10731;SDS011;5417;42.686;23.244;2022-09-30T10:20:16;2.60;;;2.50;;
10731;SDS011;5417;42.686;23.244;2022-09-30T10:22:48;3.43;;;3.10;;
10731;SDS011;5417;42.686;23.244;2022-09-30T10:25:16;5.40;;;3.20;;
10731;SDS011;5417;42.686;23.244;2022-09-30T10:27:47;3.13;;;2.93;;
10731;SDS011;5417;42.686;23.244;2022-09-30T10:30:33;3.07;;;2.87;;
10731;SDS011;5417;42.686;23.244;2022-09-30T10:33:09;4.80;;;2.57;;
10731;SDS011;5417;42.686;23.244;2022-09-30T10:35:48;3.70;;;2.87;;
10731;SDS011;5417;42.686;23.244;2022-09-30T10:38:19;4.33;;;2.30;;
10731;SDS011;5417;42.686;23.244;2022-09-30T10:40:47;3.10;;;2.23;;
10731;SDS011;5417;42.686;23.244;2022-09-30T10:43:19;5.40;;;2.90;;
10731;SDS011;5417;42.686;23.244;2022-09-30T10:45:48;4.33;;;2.70;;
10731;SDS011;5417;42.686;23.244;2022-09-30T10:48:19;5.00;;;3.23;;
10731;SDS011;5417;42.686;23.244;2022-09-30T10:50:49;2.57;;;2.37;;
10731;SDS011;5417;42.686;23.244;2022-09-30T10:53:19;2.90;;;2.70;;
10731;SDS011;5417;42.686;23.244;2022-09-30T10:55:49;3.37;;;2.90;;
10731;SDS011;5417;42.686;23.244;2022-09-30T10:58:22;3.20;;;2.90;;
10731;SDS011;5417;42.686;23.244;2022-09-30T11:00:56;5.60;;;3.53;;
10731;SDS011;5417;42.686;23.244;2022-09-30T11:03:31;3.60;;;3.27;;
10731;SDS011;5417;42.686;23.244;2022-09-30T11:06:03;5.03;;;3.10;;
10731;SDS011;5417;42.686;23.244;2022-09-30T11:08:35;3.33;;;3.07;;
10731;SDS011;5417;42.686;23.244;2022-09-30T11:11:10;3.53;;;2.97;;
10731;SDS011;5417;42.686;23.244;2022-09-30T11:13:41;4.93;;;2.57;;
10731;SDS011;5417;42.686;23.244;2022-09-30T11:16:14;3.30;;;3.00;;
10731;SDS011;5417;42.686;23.244;2022-09-30T11:18:52;2.63;;;2.33;;
10731;SDS011;5417;42.686;23.244;2022-09-30T11:21:25;2.77;;;2.20;;
10731;SDS011;5417;42.686;23.244;2022-09-30T11:24:01;2.87;;;2.63;;
10731;SDS011;5417;42.686;23.244;2022-09-30T11:26:33;2.97;;;2.78;;
10731;SDS011;5417;42.686;23.244;2022-09-30T11:29:26;3.33;;;2.80;;
10731;SDS011;5417;42.686;23.244;2022-09-30T11:32:06;3.80;;;2.35;;
10731;SDS011;5417;42.686;23.244;2022-09-30T11:34:46;3.37;;;2.43;;
10731;SDS011;5417;42.686;23.244;2022-09-30T11:37:23;1.87;;;1.77;;
10731;SDS011;5417;42.686;23.244;2022-09-30T11:40:11;2.30;;;2.17;;
10731;SDS011;5417;42.686;23.244;2022-09-30T11:42:53;2.40;;;2.20;;
10731;SDS011;5417;42.686;23.244;2022-09-30T11:45:28;5.23;;;2.63;;
10731;SDS011;5417;42.686;23.244;2022-09-30T11:48:17;2.50;;;2.30;;
10731;SDS011;5417;42.686;23.244;2022-09-30T11:51:01;1.83;;;1.73;;
10731;SDS011;5417;42.686;23.244;2022-09-30T11:53:36;3.33;;;1.93;;
10731;SDS011;5417;42.686;23.244;2022-09-30T11:56:19;2.40;;;2.03;;
10731;SDS011;5417;42.686;23.244;2022-09-30T11:59:02;3.30;;;2.03;;
10731;SDS011;5417;42.686;23.244;2022-09-30T12:01:36;3.80;;;2.60;;
10731;SDS011;5417;42.686;23.244;2022-09-30T12:04:08;2.67;;;2.47;;
10731;SDS011;5417;42.686;23.244;2022-09-30T12:06:43;3.03;;;2.70;;
10731;SDS011;5417;42.686;23.244;2022-09-30T12:09:15;3.70;;;3.40;;
10731;SDS011;5417;42.686;23.244;2022-09-30T12:11:50;4.10;;;3.20;;
10731;SDS011;5417;42.686;23.244;2022-09-30T12:14:24;2.57;;;2.17;;
10731;SDS011;5417;42.686;23.244;2022-09-30T12:16:55;2.50;;;2.30;;
10731;SDS011;5417;42.686;23.244;2022-09-30T12:19:26;3.10;;;2.03;;
10731;SDS011;5417;42.686;23.244;2022-09-30T12:22:00;2.70;;;2.37;;
10731;SDS011;5417;42.686;23.244;2022-09-30T12:24:33;2.87;;;2.00;;
10731;SDS011;5417;42.686;23.244;2022-09-30T12:27:02;2.40;;;2.20;;
10731;SDS011;5417;42.686;23.244;2022-09-30T12:29:31;2.23;;;2.03;;
10731;SDS011;5417;42.686;23.244;2022-09-30T12:32:41;3.70;;;3.03;;
10731;SDS011;5417;42.686;23.244;2022-09-30T12:35:36;3.27;;;3.00;;
10731;SDS011;5417;42.686;23.244;2022-09-30T12:38:22;3.37;;;2.63;;
10731;SDS011;5417;42.686;23.244;2022-09-30T12:41:02;7.93;;;7.40;;
10731;SDS011;5417;42.686;23.244;2022-09-30T12:47:03;3.10;;;2.83;;
10731;SDS011;5417;42.686;23.244;2022-09-30T12:49:39;3.20;;;2.90;;
10731;SDS011;5417;42.686;23.244;2022-09-30T12:52:10;2.53;;;2.33;;
10731;SDS011;5417;42.686;23.244;2022-09-30T12:54:43;4.03;;;2.67;;
10731;SDS011;5417;42.686;23.244;2022-09-30T12:57:17;2.90;;;2.50;;
10731;SDS011;5417;42.686;23.244;2022-09-30T12:59:47;2.37;;;2.17;;
10731;SDS011;5417;42.686;23.244;2022-09-30T13:02:27;2.00;;;1.90;;
10731;SDS011;5417;42.686;23.244;2022-09-30T13:08:07;2.53;;;2.10;;
10731;SDS011;5417;42.686;23.244;2022-09-30T13:10:44;3.80;;;2.10;;
10731;SDS011;5417;42.686;23.244;2022-09-30T13:13:20;2.30;;;2.10;;
10731;SDS011;5417;42.686;23.244;2022-09-30T13:15:49;2.50;;;2.30;;
10731;SDS011;5417;42.686;23.244;2022-09-30T13:21:21;3.23;;;2.40;;
10731;SDS011;5417;42.686;23.244;2022-09-30T13:23:49;2.57;;;2.37;;
10731;SDS011;5417;42.686;23.244;2022-09-30T13:32:02;2.40;;;2.30;;
10731;SDS011;5417;42.686;23.244;2022-09-30T13:34:31;2.50;;;2.30;;
10731;SDS011;5417;42.686;23.244;2022-09-30T13:37:01;7.47;;;6.77;;
10731;SDS011;5417;42.686;23.244;2022-09-30T13:39:29;5.23;;;4.73;;
10731;SDS011;5417;42.686;23.244;2022-09-30T13:42:13;3.57;;;2.53;;
10731;SDS011;5417;42.686;23.244;2022-09-30T13:44:54;2.53;;;2.33;;
10731;SDS011;5417;42.686;23.244;2022-09-30T13:47:26;2.67;;;2.17;;
10731;SDS011;5417;42.686;23.244;2022-09-30T13:49:59;2.00;;;1.90;;
10731;SDS011;5417;42.686;23.244;2022-09-30T13:52:31;2.63;;;2.00;;
10731;SDS011;5417;42.686;23.244;2022-09-30T13:55:04;3.33;;;2.17;;
10731;SDS011;5417;42.686;23.244;2022-09-30T13:57:39;2.37;;;2.27;;
10731;SDS011;5417;42.686;23.244;2022-09-30T14:00:16;2.90;;;2.63;;
10731;SDS011;5417;42.686;23.244;2022-09-30T14:02:53;2.03;;;1.93;;
10731;SDS011;5417;42.686;23.244;2022-09-30T14:08:41;3.30;;;1.77;;
10731;SDS011;5417;42.686;23.244;2022-09-30T14:11:31;2.90;;;2.47;;
10731;SDS011;5417;42.686;23.244;2022-09-30T14:14:23;1.90;;;1.70;;
10731;SDS011;5417;42.686;23.244;2022-09-30T14:17:20;2.70;;;2.20;;
10731;SDS011;5417;42.686;23.244;2022-09-30T14:20:04;4.77;;;2.20;;
10731;SDS011;5417;42.686;23.244;2022-09-30T14:22:41;2.50;;;2.30;;
10731;SDS011;5417;42.686;23.244;2022-09-30T14:25:11;2.80;;;2.30;;
10731;SDS011;5417;42.686;23.244;2022-09-30T14:28:02;6.33;;;5.93;;
10731;SDS011;5417;42.686;23.244;2022-09-30T14:30:36;3.30;;;3.00;;
10731;SDS011;5417;42.686;23.244;2022-09-30T14:33:08;2.10;;;1.93;;
10731;SDS011;5417;42.686;23.244;2022-09-30T14:35:37;2.30;;;2.20;;
10731;SDS011;5417;42.686;23.244;2022-09-30T14:38:07;3.63;;;1.80;;
10731;SDS011;5417;42.686;23.244;2022-09-30T14:40:47;1.90;;;1.80;;
10731;SDS011;5417;42.686;23.244;2022-09-30T14:43:18;2.13;;;1.70;;
10731;SDS011;5417;42.686;23.244;2022-09-30T14:45:51;2.03;;;1.93;;
10731;SDS011;5417;42.686;23.244;2022-09-30T14:48:21;2.50;;;2.30;;
10731;SDS011;5417;42.686;23.244;2022-09-30T14:50:54;2.70;;;2.20;;
10731;SDS011;5417;42.686;23.244;2022-09-30T14:53:24;2.27;;;2.03;;
10731;SDS011;5417;42.686;23.244;2022-09-30T14:55:53;2.40;;;2.20;;
10731;SDS011;5417;42.686;23.244;2022-09-30T14:58:22;2.40;;;2.17;;
10731;SDS011;5417;42.686;23.244;2022-09-30T15:01:02;2.50;;;2.30;;
10731;SDS011;5417;42.686;23.244;2022-09-30T15:03:32;2.40;;;2.23;;
10731;SDS011;5417;42.686;23.244;2022-09-30T15:06:15;1.97;;;1.87;;
10731;SDS011;5417;42.686;23.244;2022-09-30T15:08:43;2.47;;;2.27;;
10731;SDS011;5417;42.686;23.244;2022-09-30T15:11:16;4.03;;;2.23;;
10731;SDS011;5417;42.686;23.244;2022-09-30T15:13:44;3.50;;;2.23;;
10731;SDS011;5417;42.686;23.244;2022-09-30T15:16:22;5.27;;;2.77;;
10731;SDS011;5417;42.686;23.244;2022-09-30T15:18:50;4.50;;;3.03;;
10731;SDS011;5417;42.686;23.244;2022-09-30T15:21:18;4.33;;;2.80;;
10731;SDS011;5417;42.686;23.244;2022-09-30T15:23:46;3.70;;;2.90;;
10731;SDS011;5417;42.686;23.244;2022-09-30T15:26:16;3.90;;;2.40;;
10731;SDS011;5417;42.686;23.244;2022-09-30T15:28:45;3.33;;;2.70;;
10731;SDS011;5417;42.686;23.244;2022-09-30T15:31:16;6.67;;;6.10;;